| time (UTC) | temp C | wind direction | speed KPH | gust KPH | rain 1hr cm | rain 24hr cm | rain mn cm | humidity % | barometer mb |
| 20260506230330 | 13 | 203 | 9.7 | 20.9 | 0.03 | 0.30 | 0.03 | 92 | 1014.0 |
| 20260506225826 | 13 | 199 | 12.9 | 22.5 | 0.03 | 0.28 | 0.03 | 92 | 1014.1 |
| 20260506225329 | 13 | 197 | 16.1 | 24.1 | 0.03 | 0.28 | 0.03 | 92 | 1014.1 |
| 20260506224821 | 13 | 197 | 17.7 | 24.1 | 0.03 | 0.28 | 0.03 | 92 | 1014.2 |
| 20260506224323 | 13 | 199 | 16.1 | 25.7 | 0.00 | 0.28 | 0.00 | 92 | 1014.1 |
| 20260506223817 | 14 | 189 | 14.5 | 25.7 | 0.00 | 0.28 | 0.00 | 91 | 1014.3 |
| 20260506223315 | 14 | 203 | 14.5 | 22.5 | 0.00 | 0.28 | 0.00 | 91 | 1014.4 |
| 20260506222815 | 14 | 182 | 9.7 | 17.7 | 0.00 | 0.28 | 0.00 | 91 | 1014.4 |
| 20260506221816 | 14 | 212 | 8.0 | 14.5 | 0.00 | 0.28 | 0.00 | 91 | 1014.4 |
| 20260506221251 | 14 | 140 | 9.7 | 17.7 | 0.00 | 0.28 | 0.00 | 91 | 1014.4 |
| 20260506220748 | 14 | 199 | 11.3 | 24.1 | 0.00 | 0.28 | 0.00 | 91 | 1014.3 |
| 20260506220309 | 14 | 230 | 11.3 | 24.1 | 0.00 | 0.28 | 0.00 | 91 | 1014.2 |
| 20260506215734 | 14 | 209 | 14.5 | 19.3 | 0.00 | 0.28 | 0.28 | 91 | 1014.1 |
| 20260506215231 | 14 | 182 | 9.7 | 16.1 | 0.00 | 0.28 | 0.28 | 91 | 1014.3 |
| 20260506214236 | 14 | 190 | 4.8 | 17.7 | 0.00 | 0.28 | 0.28 | 91 | 1014.3 |
| 20260506213720 | 14 | 206 | 4.8 | 17.7 | 0.00 | 0.28 | 0.28 | 91 | 1014.3 |
| 20260506213219 | 14 | 202 | 11.3 | 24.1 | 0.00 | 0.28 | 0.28 | 91 | 1014.2 |
| 20260506212716 | 14 | 175 | 16.1 | 24.1 | 0.00 | 0.28 | 0.28 | 91 | 1014.2 |
| 20260506212223 | 14 | 213 | 14.5 | 24.1 | 0.00 | 0.28 | 0.28 | 91 | 1014.2 |
| 20260506211209 | 14 | 169 | 12.9 | 20.9 | 0.00 | 0.28 | 0.28 | 90 | 1014.3 |
| 20260506210705 | 14 | 169 | 9.7 | 14.5 | 0.00 | 0.28 | 0.28 | 90 | 1014.5 |
| 20260506205703 | 14 | 226 | 8.0 | 11.3 | 0.00 | 0.28 | 0.28 | 90 | 1014.4 |
| 20260506204154 | 14 | 212 | 6.4 | 22.5 | 0.00 | 0.28 | 0.28 | 89 | 1014.3 |
| 20260506203656 | 14 | 173 | 12.9 | 27.4 | 0.00 | 0.28 | 0.28 | 89 | 1014.4 |
| 20260506202634 | 14 | 214 | 16.1 | 24.1 | 0.00 | 0.28 | 0.28 | 89 | 1014.3 |
| 20260506202129 | 14 | 214 | 9.7 | 20.9 | 0.00 | 0.28 | 0.28 | 89 | 1014.3 |
| 20260506201624 | 14 | 200 | 11.3 | 20.9 | 0.00 | 0.28 | 0.28 | 90 | 1014.3 |
| 20260506201123 | 14 | 261 | 9.7 | 22.5 | 0.00 | 0.28 | 0.28 | 90 | 1014.2 |
| 20260506200619 | 14 | 212 | 12.9 | 22.5 | 0.00 | 0.28 | 0.28 | 90 | 1014.1 |
| 20260506200109 | 14 | 228 | 8.0 | 19.3 | 0.00 | 0.28 | 0.28 | 89 | 1014.0 |
| 20260506195643 | 14 | 172 | 14.5 | 24.1 | 0.00 | 0.28 | 0.28 | 89 | 1013.9 |
| 20260506194101 | 14 | 221 | 8.0 | 17.7 | 0.00 | 0.28 | 0.28 | 89 | 1013.8 |
| 20260506193603 | 14 | 210 | 9.7 | 17.7 | 0.03 | 0.28 | 0.28 | 89 | 1013.8 |
| 20260506193053 | 14 | 199 | 12.9 | 22.5 | 0.03 | 0.28 | 0.28 | 89 | 1013.7 |
| 20260506192607 | 14 | 161 | 12.9 | 22.5 | 0.05 | 0.28 | 0.28 | 89 | 1013.6 |
| 20260506192043 | 14 | 221 | 16.1 | 22.5 | 0.05 | 0.28 | 0.28 | 89 | 1013.5 |
| 20260506191546 | 14 | 233 | 9.7 | 24.1 | 0.05 | 0.28 | 0.28 | 89 | 1013.6 |
| 20260506191048 | 14 | 210 | 14.5 | 24.1 | 0.05 | 0.28 | 0.28 | 89 | 1013.5 |
| 20260506190545 | 14 | 210 | 11.3 | 22.5 | 0.05 | 0.28 | 0.28 | 89 | 1013.6 |
| 20260506190036 | 14 | 195 | 11.3 | 20.9 | 0.05 | 0.23 | 0.28 | 89 | 1013.6 |
| 20260506185541 | 14 | 238 | 11.3 | 20.9 | 0.05 | 0.23 | 0.28 | 89 | 1013.5 |
| 20260506185031 | 14 | 155 | 12.9 | 17.7 | 0.05 | 0.23 | 0.28 | 89 | 1013.4 |
| 20260506184509 | 14 | 175 | 11.3 | 19.3 | 0.05 | 0.23 | 0.28 | 89 | 1013.4 |
| 20260506184001 | 14 | 213 | 12.9 | 19.3 | 0.05 | 0.23 | 0.25 | 88 | 1013.4 |
| 20260506183442 | 15 | 207 | 8.0 | 17.7 | 0.05 | 0.23 | 0.25 | 88 | 1013.5 |
| 20260506182425 | 15 | 189 | 9.7 | 19.3 | 0.00 | 0.23 | 0.23 | 86 | 1013.3 |
| 20260506181421 | 15 | 182 | 11.3 | 24.1 | 0.00 | 0.23 | 0.23 | 85 | 1013.3 |
| 20260506180914 | 15 | 219 | 16.1 | 25.7 | 0.00 | 0.23 | 0.23 | 85 | 1013.3 |
| 20260506180414 | 15 | 158 | 17.7 | 30.6 | 0.00 | 0.23 | 0.23 | 85 | 1013.4 |
| 20260506175912 | 15 | 217 | 17.7 | 32.2 | 0.00 | 0.23 | 0.23 | 85 | 1013.3 |
| 20260506174854 | 15 | 180 | 16.1 | 30.6 | 0.00 | 0.23 | 0.23 | 85 | 1013.3 |
| 20260506174349 | 15 | 199 | 22.5 | 29.0 | 0.00 | 0.23 | 0.23 | 84 | 1013.3 |
| 20260506173845 | 15 | 230 | 17.7 | 25.7 | 0.00 | 0.23 | 0.23 | 84 | 1013.4 |
| 20260506173342 | 15 | 203 | 14.5 | 24.1 | 0.00 | 0.23 | 0.23 | 84 | 1013.4 |
| 20260506172846 | 15 | 203 | 11.3 | 29.0 | 0.00 | 0.23 | 0.23 | 84 | 1013.4 |
| 20260506172343 | 15 | 223 | 11.3 | 29.0 | 0.00 | 0.23 | 0.23 | 84 | 1013.3 |
| 20260506171833 | 15 | 227 | 12.9 | 24.1 | 0.00 | 0.23 | 0.23 | 84 | 1013.3 |
| 20260506171348 | 15 | 166 | 14.5 | 24.1 | 0.00 | 0.23 | 0.23 | 84 | 1013.3 |
| 20260506165335 | 15 | 197 | 19.3 | 33.8 | 0.00 | 0.23 | 0.23 | 84 | 1013.2 |
| 20260506164832 | 15 | 207 | 25.7 | 33.8 | 0.00 | 0.23 | 0.23 | 83 | 1013.1 |
| 20260506164329 | 15 | 204 | 12.9 | 27.4 | 0.00 | 0.23 | 0.23 | 85 | 1013.2 |
| 20260506163823 | 15 | 227 | 17.7 | 27.4 | 0.00 | 0.23 | 0.23 | 85 | 1013.2 |
| 20260506163318 | 15 | 224 | 16.1 | 25.7 | 0.00 | 0.23 | 0.23 | 85 | 1013.2 |
| 20260506162312 | 15 | 200 | 22.5 | 37.0 | 0.00 | 0.23 | 0.23 | 85 | 1013.3 |
| 20260506161811 | 16 | 175 | 17.7 | 27.4 | 0.00 | 0.23 | 0.23 | 85 | 1013.3 |
| 20260506161312 | 16 | 200 | 12.9 | 20.9 | 0.00 | 0.23 | 0.23 | 85 | 1013.2 |
| 20260506160812 | 16 | 186 | 14.5 | 27.4 | 0.00 | 0.23 | 0.23 | 85 | 1013.3 |
| 20260506155746 | 16 | 162 | 20.9 | 30.6 | 0.00 | 0.23 | 0.23 | 85 | 1013.4 |
| 20260506155252 | 16 | 193 | 16.1 | 30.6 | 0.00 | 0.23 | 0.23 | 85 | 1013.3 |
| 20260506154744 | 16 | 49 | 17.7 | 29.0 | 0.00 | 0.23 | 0.23 | 84 | 1013.3 |
| 20260506154244 | 16 | 195 | 19.3 | 29.0 | 0.00 | 0.23 | 0.23 | 85 | 1013.3 |
| 20260506153740 | 16 | 207 | 14.5 | 25.7 | 0.00 | 0.23 | 0.23 | 85 | 1013.2 |
| 20260506153232 | 16 | 206 | 11.3 | 25.7 | 0.00 | 0.23 | 0.23 | 86 | 1013.3 |
| 20260506152727 | 16 | 171 | 14.5 | 24.1 | 0.00 | 0.23 | 0.23 | 86 | 1013.3 |
| 20260506152229 | 16 | 221 | 14.5 | 29.0 | 0.00 | 0.23 | 0.23 | 86 | 1013.3 |
| 20260506151724 | 16 | 213 | 16.1 | 29.0 | 0.00 | 0.23 | 0.23 | 86 | 1013.4 |
| 20260506151212 | 16 | 223 | 14.5 | 27.4 | 0.00 | 0.23 | 0.23 | 86 | 1013.4 |
| 20260506150212 | 16 | 197 | 17.7 | 25.7 | 0.00 | 0.23 | 0.23 | 86 | 1013.2 |
| 20260506145712 | 16 | 178 | 8.0 | 24.1 | 0.00 | 0.23 | 0.23 | 87 | 1013.3 |
| 20260506144211 | 15 | 197 | 19.3 | 32.2 | 0.10 | 0.23 | 0.23 | 87 | 1013.2 |
| 20260506143710 | 15 | 243 | 20.9 | 38.6 | 0.10 | 0.23 | 0.23 | 87 | 1013.4 |
| 20260506143210 | 15 | 148 | 25.7 | 38.6 | 0.10 | 0.23 | 0.23 | 86 | 1013.3 |
| 20260506142712 | 15 | 209 | 20.9 | 35.4 | 0.10 | 0.23 | 0.23 | 87 | 1013.3 |
| 20260506142210 | 15 | 210 | 20.9 | 33.8 | 0.10 | 0.23 | 0.23 | 88 | 1013.1 |
| 20260506141710 | 15 | 162 | 20.9 | 30.6 | 0.10 | 0.23 | 0.23 | 88 | 1013.3 |
| 20260506141213 | 15 | 261 | 17.7 | 32.2 | 0.10 | 0.23 | 0.23 | 88 | 1013.3 |
| 20260506140710 | 15 | 214 | 14.5 | 32.2 | 0.10 | 0.23 | 0.23 | 88 | 1013.3 |
| 20260506140211 | 15 | 244 | 9.7 | 22.5 | 0.10 | 0.23 | 0.23 | 88 | 1013.3 |
| 20260506135709 | 15 | 224 | 14.5 | 22.5 | 0.10 | 0.13 | 0.23 | 88 | 1013.3 |
| 20260506135210 | 15 | 176 | 6.4 | 27.4 | 0.10 | 0.13 | 0.23 | 87 | 1013.2 |
| 20260506134208 | 16 | 195 | 16.1 | 25.7 | 0.00 | 0.13 | 0.13 | 84 | 1013.3 |
| 20260506133715 | 16 | 233 | 12.9 | 25.7 | 0.00 | 0.13 | 0.13 | 84 | 1013.2 |
| 20260506133211 | 16 | 200 | 14.5 | 25.7 | 0.00 | 0.13 | 0.13 | 83 | 1013.3 |
| 20260506132712 | 16 | 217 | 14.5 | 25.7 | 0.00 | 0.15 | 0.13 | 84 | 1013.5 |
| 20260506132208 | 16 | 279 | 6.4 | 30.6 | 0.00 | 0.15 | 0.13 | 84 | 1013.4 |
| 20260506131208 | 16 | 234 | 22.5 | 37.0 | 0.00 | 0.15 | 0.13 | 80 | 1013.7 |
| 20260506130221 | 17 | 200 | 22.5 | 33.8 | 0.00 | 0.15 | 0.13 | 76 | 1013.7 |
| 20260506125708 | 17 | 213 | 20.9 | 37.0 | 0.00 | 0.15 | 0.13 | 75 | 1013.6 |
| 20260506125216 | 17 | 203 | 24.1 | 37.0 | 0.00 | 0.15 | 0.13 | 73 | 1013.6 |
| 20260506124708 | 17 | 133 | 19.3 | 46.7 | 0.00 | 0.15 | 0.13 | 72 | 1013.6 |
| 20260506124212 | 17 | 200 | 24.1 | 46.7 | 0.00 | 0.15 | 0.13 | 71 | 1013.6 |
| 20260506123707 | 18 | 262 | 29.0 | 45.1 | 0.00 | 0.15 | 0.13 | 69 | 1013.7 |
| 20260506123207 | 18 | 250 | 14.5 | 46.7 | 0.00 | 0.15 | 0.13 | 68 | 1013.6 |
| 20260506122721 | 18 | 216 | 24.1 | 46.7 | 0.00 | 0.15 | 0.13 | 69 | 1013.7 |
| 20260506122207 | 18 | 173 | 32.2 | 45.1 | 0.00 | 0.18 | 0.13 | 68 | 1013.7 |
| 20260506121706 | 17 | 243 | 29.0 | 46.7 | 0.00 | 0.18 | 0.13 | 68 | 1013.7 |
| 20260506121208 | 18 | 217 | 20.9 | 46.7 | 0.00 | 0.18 | 0.13 | 71 | 1013.6 |
| 20260506120708 | 17 | 199 | 19.3 | 41.8 | 0.00 | 0.20 | 0.13 | 69 | 1013.6 |
| 20260506120201 | 17 | 219 | 27.4 | 41.8 | 0.00 | 0.20 | 0.13 | 69 | 1013.6 |
| 20260506115154 | 18 | 217 | 17.7 | 38.6 | 0.00 | 0.20 | 0.13 | 68 | 1013.6 |
| 20260506114647 | 18 | 169 | 17.7 | 30.6 | 0.00 | 0.20 | 0.13 | 70 | 1013.6 |
| 20260506114139 | 17 | 207 | 12.9 | 49.9 | 0.00 | 0.20 | 0.13 | 70 | 1013.6 |
| 20260506113636 | 17 | 204 | 29.0 | 49.9 | 0.00 | 0.23 | 0.13 | 70 | 1013.7 |
| 20260506113137 | 17 | 200 | 20.9 | 38.6 | 0.00 | 0.23 | 0.13 | 70 | 1013.6 |
| 20260506112649 | 17 | 223 | 19.3 | 37.0 | 0.00 | 0.23 | 0.13 | 69 | 1013.6 |
| 20260506112135 | 17 | 197 | 27.4 | 37.0 | 0.00 | 0.23 | 0.13 | 68 | 1013.5 |
| 20260506111625 | 17 | 216 | 16.1 | 41.8 | 0.00 | 0.23 | 0.13 | 69 | 1013.4 |
| 20260506111122 | 17 | 227 | 22.5 | 45.1 | 0.00 | 0.23 | 0.13 | 71 | 1013.5 |
| 20260506110631 | 17 | 203 | 19.3 | 45.1 | 0.00 | 0.23 | 0.13 | 71 | 1013.6 |
| 20260506110128 | 17 | 221 | 32.2 | 48.3 | 0.00 | 0.23 | 0.13 | 72 | 1013.7 |
| 20260506105610 | 17 | 213 | 30.6 | 48.3 | 0.00 | 0.23 | 0.13 | 73 | 1013.7 |
| 20260506105107 | 17 | 171 | 19.3 | 45.1 | 0.00 | 0.23 | 0.13 | 71 | 1013.7 |
| 20260506104612 | 16 | 204 | 27.4 | 45.1 | 0.00 | 0.23 | 0.13 | 71 | 1013.8 |
| 20260506104106 | 17 | 228 | 24.1 | 37.0 | 0.00 | 0.25 | 0.13 | 71 | 1013.8 |
| 20260506103614 | 17 | 219 | 20.9 | 43.5 | 0.00 | 0.25 | 0.13 | 71 | 1013.8 |
| 20260506103103 | 17 | 231 | 20.9 | 43.5 | 0.00 | 0.28 | 0.13 | 71 | 1013.7 |
| 20260506102603 | 17 | 190 | 22.5 | 41.8 | 0.00 | 0.30 | 0.13 | 71 | 1013.7 |
| 20260506102108 | 17 | 192 | 22.5 | 41.8 | 0.00 | 0.30 | 0.13 | 71 | 1013.8 |
| 20260506101553 | 17 | 161 | 22.5 | 48.3 | 0.00 | 0.30 | 0.13 | 69 | 1013.8 |
| 20260506100551 | 17 | 210 | 25.7 | 43.5 | 0.00 | 0.30 | 0.13 | 70 | 1013.8 |
| 20260506095612 | 16 | 226 | 33.8 | 46.7 | 0.00 | 0.30 | 0.13 | 71 | 1013.9 |
| 20260506094543 | 16 | 180 | 22.5 | 32.2 | 0.00 | 0.33 | 0.13 | 74 | 1013.8 |
| 20260506094044 | 16 | 233 | 12.9 | 32.2 | 0.00 | 0.33 | 0.13 | 75 | 1013.7 |
| 20260506093536 | 16 | 226 | 12.9 | 30.6 | 0.00 | 0.33 | 0.13 | 75 | 1013.7 |
| 20260506093032 | 16 | 227 | 17.7 | 32.2 | 0.00 | 0.33 | 0.13 | 75 | 1013.7 |
| 20260506092541 | 16 | 162 | 20.9 | 32.2 | 0.00 | 0.33 | 0.13 | 76 | 1013.7 |
| 20260506092031 | 16 | 149 | 11.3 | 17.7 | 0.00 | 0.36 | 0.13 | 79 | 1013.8 |
| 20260506091604 | 16 | 123 | 6.4 | 20.9 | 0.00 | 0.38 | 0.13 | 81 | 1013.8 |
| 20260506090542 | 15 | 216 | 9.7 | 16.1 | 0.00 | 0.38 | 0.13 | 80 | 1014.0 |
| 20260506085506 | 15 | 231 | 8.0 | 19.3 | 0.00 | 0.43 | 0.13 | 82 | 1013.8 |
| 20260506084502 | 15 | 121 | 9.7 | 17.7 | 0.00 | 0.43 | 0.13 | 81 | 1013.8 |
| 20260506084008 | 15 | 157 | 9.7 | 16.1 | 0.00 | 0.46 | 0.13 | 81 | 1013.9 |
| 20260506083001 | 15 | 152 | 8.0 | 14.5 | 0.00 | 0.46 | 0.13 | 83 | 1013.8 |
| 20260506082509 | 15 | 118 | 8.0 | 14.5 | 0.00 | 0.46 | 0.13 | 83 | 1013.7 |
| 20260506081505 | 14 | 159 | 11.3 | 24.1 | 0.00 | 0.46 | 0.13 | 83 | 1013.8 |
| 20260506080958 | 15 | 159 | 8.0 | 17.7 | 0.00 | 0.46 | 0.13 | 83 | 1013.6 |
| 20260506080454 | 15 | 125 | 6.4 | 16.1 | 0.00 | 0.46 | 0.13 | 85 | 1013.6 |
| 20260506073447 | 14 | 130 | 8.0 | 14.5 | 0.00 | 0.48 | 0.13 | 86 | 1013.6 |
| 20260506072939 | 13 | 145 | 4.8 | 9.7 | 0.00 | 0.48 | 0.13 | 88 | 1013.6 |
| 20260506071938 | 13 | 161 | 9.7 | 14.5 | 0.00 | 0.48 | 0.13 | 88 | 1013.5 |
| 20260506071439 | 13 | 157 | 8.0 | 14.5 | 0.00 | 0.48 | 0.13 | 88 | 1013.6 |
| 20260506070934 | 13 | 190 | 8.0 | 11.3 | 0.00 | 0.48 | 0.13 | 89 | 1013.7 |
| 20260506070436 | 13 | 162 | 6.4 | 11.3 | 0.00 | 0.48 | 0.13 | 88 | 1013.7 |
| 20260506062409 | 12 | 172 | 9.7 | 22.5 | 0.00 | 0.51 | 0.13 | 91 | 1013.6 |
| 20260506061907 | 12 | 171 | 8.0 | 17.7 | 0.00 | 0.51 | 0.13 | 91 | 1013.6 |
| 20260506060909 | 12 | 151 | 11.3 | 19.3 | 0.00 | 0.51 | 0.13 | 91 | 1013.7 |
| 20260506060402 | 12 | 164 | 9.7 | 19.3 | 0.00 | 0.51 | 0.13 | 91 | 1013.6 |
| 20260506050858 | 12 | 145 | 16.1 | 29.0 | 0.00 | 0.61 | 0.13 | 91 | 1013.6 |
| 20260506050347 | 12 | 148 | 17.7 | 29.0 | 0.00 | 0.61 | 0.13 | 91 | 1013.5 |
| 20260506044837 | 12 | 155 | 14.5 | 27.4 | 0.00 | 0.61 | 0.13 | 90 | 1013.4 |
| 20260506044334 | 12 | 121 | 14.5 | 25.7 | 0.00 | 0.61 | 0.13 | 90 | 1013.5 |
| 20260506043834 | 12 | 145 | 12.9 | 25.7 | 0.00 | 0.61 | 0.13 | 90 | 1013.4 |
| 20260506043335 | 12 | 183 | 16.1 | 24.1 | 0.00 | 0.61 | 0.13 | 90 | 1013.5 |
| 20260506042834 | 12 | 214 | 11.3 | 19.3 | 0.00 | 0.61 | 0.13 | 90 | 1013.6 |
| 20260506041825 | 12 | 206 | 9.7 | 20.9 | 0.00 | 0.61 | 0.13 | 89 | 1013.5 |
| 20260506041320 | 12 | 169 | 12.9 | 19.3 | 0.00 | 0.61 | 0.13 | 89 | 1013.4 |
| 20260506040823 | 12 | 165 | 8.0 | 17.7 | 0.00 | 0.61 | 0.13 | 88 | 1013.4 |
| 20260506040317 | 12 | 164 | 9.7 | 22.5 | 0.00 | 0.61 | 0.13 | 88 | 1013.4 |
| 20260506035306 | 12 | 165 | 11.3 | 17.7 | 0.00 | 0.61 | 0.13 | 88 | 1013.4 |
| 20260506034303 | 12 | 196 | 9.7 | 25.7 | 0.00 | 0.64 | 0.13 | 88 | 1013.6 |
| 20260506033756 | 12 | 182 | 12.9 | 33.8 | 0.00 | 0.64 | 0.13 | 88 | 1013.5 |
| 20260506033255 | 12 | 165 | 17.7 | 33.8 | 0.00 | 0.64 | 0.13 | 88 | 1013.4 |
| 20260506032805 | 12 | 207 | 19.3 | 29.0 | 0.00 | 0.64 | 0.13 | 88 | 1013.3 |
| 20260506032256 | 12 | 221 | 19.3 | 37.0 | 0.00 | 0.66 | 0.13 | 88 | 1013.3 |
| 20260506031758 | 12 | 219 | 20.9 | 37.0 | 0.00 | 0.66 | 0.13 | 87 | 1013.2 |
| 20260506031254 | 12 | 131 | 20.9 | 25.7 | 0.00 | 0.66 | 0.13 | 88 | 1013.4 |
| 20260506030753 | 12 | 227 | 17.7 | 27.4 | 0.00 | 0.66 | 0.13 | 88 | 1013.4 |
| 20260506030255 | 12 | 196 | 12.9 | 27.4 | 0.00 | 0.66 | 0.13 | 88 | 1013.4 |
| 20260506025754 | 12 | 204 | 16.1 | 29.0 | 0.03 | 0.64 | 0.13 | 88 | 1013.6 |
| 20260506025254 | 12 | 214 | 17.7 | 29.0 | 0.05 | 0.66 | 0.13 | 89 | 1013.6 |
| 20260506024754 | 13 | 210 | 17.7 | 29.0 | 0.10 | 0.66 | 0.13 | 89 | 1013.7 |
| 20260506023753 | 12 | 214 | 16.1 | 24.1 | 0.13 | 0.69 | 0.13 | 91 | 1013.8 |
| 20260506023255 | 12 | 207 | 16.1 | 22.5 | 0.13 | 0.69 | 0.13 | 92 | 1013.8 |
| 20260506022756 | 13 | 210 | 14.5 | 25.7 | 0.13 | 0.69 | 0.13 | 91 | 1013.8 |
| 20260506022255 | 13 | 212 | 16.1 | 25.7 | 0.13 | 0.69 | 0.13 | 91 | 1013.9 |
| 20260506021754 | 13 | 173 | 12.9 | 19.3 | 0.13 | 0.69 | 0.13 | 91 | 1014.0 |
| 20260506021252 | 13 | 161 | 8.0 | 17.7 | 0.13 | 0.69 | 0.13 | 91 | 1014.2 |
| 20260506020752 | 13 | 199 | 11.3 | 17.7 | 0.13 | 0.69 | 0.13 | 91 | 1014.3 |
| 20260506020254 | 13 | 144 | 8.0 | 20.9 | 0.13 | 0.69 | 0.13 | 90 | 1014.5 |
| 20260506015752 | 13 | 212 | 11.3 | 20.9 | 0.10 | 0.58 | 0.10 | 91 | 1014.4 |
| 20260506015256 | 13 | 189 | 8.0 | 20.9 | 0.05 | 0.58 | 0.05 | 91 | 1014.5 |
| 20260506014753 | 13 | 220 | 12.9 | 20.9 | 0.03 | 0.58 | 0.03 | 91 | 1014.6 |
| 20260506014252 | 13 | 226 | 9.7 | 16.1 | 0.00 | 0.61 | 0.00 | 91 | 1014.5 |
| 20260506013753 | 13 | 217 | 6.4 | 17.7 | 0.00 | 0.61 | 0.00 | 91 | 1014.4 |
| 20260506013254 | 13 | 231 | 6.4 | 17.7 | 0.00 | 0.61 | 0.00 | 91 | 1014.2 |
| 20260506012752 | 13 | 221 | 9.7 | 17.7 | 0.00 | 0.61 | 0.00 | 91 | 1014.2 |
| 20260506012252 | 13 | 157 | 6.4 | 11.3 | 0.00 | 0.61 | 0.00 | 91 | 1014.1 |
| 20260506011753 | 13 | 140 | 8.0 | 14.5 | 0.00 | 0.61 | 0.00 | 91 | 1014.1 |
| 20260506011251 | 13 | 226 | 9.7 | 19.3 | 0.00 | 0.61 | 0.00 | 91 | 1014.2 |
| 20260506005741 | 13 | 159 | 8.0 | 19.3 | 0.00 | 0.61 | 0.00 | 91 | 1014.1 |
| 20260506004735 | 13 | 135 | 9.7 | 11.3 | 0.00 | 0.61 | 0.00 | 91 | 1014.2 |
| 20260506004236 | 13 | 175 | 8.0 | 14.5 | 0.00 | 0.61 | 0.00 | 91 | 1014.2 |
| 20260506003235 | 13 | 183 | 9.7 | 19.3 | 0.00 | 0.61 | 0.00 | 91 | 1014.2 |
| 20260506002734 | 13 | 140 | 12.9 | 19.3 | 0.00 | 0.61 | 0.00 | 91 | 1014.3 |
| 20260506002235 | 13 | 149 | 9.7 | 16.1 | 0.00 | 0.61 | 0.00 | 91 | 1014.2 |
| 20260506001736 | 13 | 209 | 9.7 | 16.1 | 0.00 | 0.61 | 0.00 | 91 | 1014.3 |
| 20260506001217 | 13 | 145 | 6.4 | 16.1 | 0.00 | 0.61 | 0.00 | 91 | 1014.4 |
| 20260506000716 | 13 | 154 | 9.7 | 16.1 | 0.00 | 0.61 | 0.00 | 91 | 1014.5 |
| 20260506000216 | 13 | 155 | 6.4 | 17.7 | 0.00 | 0.61 | 0.00 | 90 | 1014.6 |
| 20260505235227 | 13 | 140 | 9.7 | 17.7 | 0.00 | 0.61 | 0.00 | 90 | 1014.5 |
| 20260505234214 | 13 | 182 | 9.7 | 19.3 | 0.00 | 0.61 | 0.00 | 90 | 1014.6 |
| 20260505233711 | 13 | 176 | 8.0 | 19.3 | 0.00 | 0.61 | 0.00 | 90 | 1014.6 |
| 20260505233213 | 13 | 200 | 9.7 | 19.3 | 0.00 | 0.61 | 0.00 | 90 | 1014.7 |
| 20260505232714 | 13 | 159 | 8.0 | 19.3 | 0.00 | 0.61 | 0.00 | 90 | 1014.6 |
| 20260505232210 | 13 | 134 | 11.3 | 19.3 | 0.00 | 0.61 | 0.00 | 90 | 1014.8 |
| 20260505231709 | 13 | 203 | 8.0 | 20.9 | 0.00 | 0.61 | 0.00 | 89 | 1014.7 |
| 20260505231207 | 13 | 180 | 9.7 | 24.1 | 0.00 | 0.61 | 0.00 | 89 | 1014.8 |
| 20260505230707 | 13 | 176 | 17.7 | 25.7 | 0.00 | 0.61 | 0.00 | 89 | 1014.9 |